sensor_id;sensor_type;location;lat;lon;timestamp;temperature;humidity
11087;DHT22;5597;47.588;9.642;2024-01-30T00:01:02;1.00;99.90
11087;DHT22;5597;47.588;9.642;2024-01-30T00:03:28;1.00;99.90
11087;DHT22;5597;47.588;9.642;2024-01-30T00:05:55;1.10;99.90
11087;DHT22;5597;47.588;9.642;2024-01-30T00:08:20;1.10;99.90
11087;DHT22;5597;47.588;9.642;2024-01-30T00:10:46;1.10;99.90
11087;DHT22;5597;47.588;9.642;2024-01-30T00:13:12;1.10;99.90
11087;DHT22;5597;47.588;9.642;2024-01-30T00:15:39;1.10;99.90
11087;DHT22;5597;47.588;9.642;2024-01-30T00:18:04;1.10;99.90
11087;DHT22;5597;47.588;9.642;2024-01-30T00:20:30;1.10;99.90
11087;DHT22;5597;47.588;9.642;2024-01-30T00:22:56;1.10;99.90
11087;DHT22;5597;47.588;9.642;2024-01-30T00:25:21;1.10;99.90
11087;DHT22;5597;47.588;9.642;2024-01-30T00:27:47;1.10;99.90
11087;DHT22;5597;47.588;9.642;2024-01-30T00:30:12;1.10;99.90
11087;DHT22;5597;47.588;9.642;2024-01-30T00:32:38;1.10;99.90
11087;DHT22;5597;47.588;9.642;2024-01-30T00:35:04;1.10;99.90
11087;DHT22;5597;47.588;9.642;2024-01-30T00:37:30;1.10;99.90
11087;DHT22;5597;47.588;9.642;2024-01-30T00:39:57;1.10;99.90
11087;DHT22;5597;47.588;9.642;2024-01-30T00:42:22;1.10;99.90
11087;DHT22;5597;47.588;9.642;2024-01-30T00:44:49;1.10;99.90
11087;DHT22;5597;47.588;9.642;2024-01-30T00:47:15;1.10;99.90
11087;DHT22;5597;47.588;9.642;2024-01-30T00:49:40;1.10;99.90
11087;DHT22;5597;47.588;9.642;2024-01-30T00:52:06;1.10;99.90
11087;DHT22;5597;47.588;9.642;2024-01-30T00:54:31;1.10;99.90
11087;DHT22;5597;47.588;9.642;2024-01-30T00:56:57;1.10;99.90
11087;DHT22;5597;47.588;9.642;2024-01-30T00:59:23;1.20;99.90
11087;DHT22;5597;47.588;9.642;2024-01-30T01:01:48;1.10;99.90
11087;DHT22;5597;47.588;9.642;2024-01-30T01:04:14;1.20;99.90
11087;DHT22;5597;47.588;9.642;2024-01-30T01:06:39;1.20;99.90
11087;DHT22;5597;47.588;9.642;2024-01-30T01:09:08;1.20;99.90
11087;DHT22;5597;47.588;9.642;2024-01-30T01:11:33;1.20;99.90
11087;DHT22;5597;47.588;9.642;2024-01-30T01:13:59;1.20;99.90
11087;DHT22;5597;47.588;9.642;2024-01-30T01:16:24;1.20;99.90
11087;DHT22;5597;47.588;9.642;2024-01-30T01:18:50;1.20;99.90
11087;DHT22;5597;47.588;9.642;2024-01-30T01:21:15;1.20;99.90
11087;DHT22;5597;47.588;9.642;2024-01-30T01:23:41;1.20;99.90
11087;DHT22;5597;47.588;9.642;2024-01-30T01:26:08;1.20;99.90
11087;DHT22;5597;47.588;9.642;2024-01-30T01:28:35;1.20;99.90
11087;DHT22;5597;47.588;9.642;2024-01-30T01:31:01;1.20;99.90
11087;DHT22;5597;47.588;9.642;2024-01-30T01:33:31;1.20;99.90
11087;DHT22;5597;47.588;9.642;2024-01-30T01:35:58;1.10;99.90
11087;DHT22;5597;47.588;9.642;2024-01-30T01:38:24;1.10;99.90
11087;DHT22;5597;47.588;9.642;2024-01-30T01:40:50;1.10;99.90
11087;DHT22;5597;47.588;9.642;2024-01-30T01:43:16;1.10;99.90
11087;DHT22;5597;47.588;9.642;2024-01-30T01:45:42;1.10;99.90
11087;DHT22;5597;47.588;9.642;2024-01-30T01:48:08;1.10;99.90
11087;DHT22;5597;47.588;9.642;2024-01-30T01:50:35;1.10;99.90
11087;DHT22;5597;47.588;9.642;2024-01-30T01:53:02;1.10;99.90
11087;DHT22;5597;47.588;9.642;2024-01-30T01:55:29;1.10;99.90
11087;DHT22;5597;47.588;9.642;2024-01-30T01:57:55;1.10;99.90
11087;DHT22;5597;47.588;9.642;2024-01-30T02:00:21;1.10;99.90
11087;DHT22;5597;47.588;9.642;2024-01-30T02:02:47;1.10;99.90
11087;DHT22;5597;47.588;9.642;2024-01-30T02:05:13;1.10;99.90
11087;DHT22;5597;47.588;9.642;2024-01-30T02:07:39;1.00;99.90
11087;DHT22;5597;47.588;9.642;2024-01-30T02:10:06;1.00;99.90
11087;DHT22;5597;47.588;9.642;2024-01-30T02:12:32;1.00;99.90
11087;DHT22;5597;47.588;9.642;2024-01-30T02:14:58;1.00;99.90
11087;DHT22;5597;47.588;9.642;2024-01-30T02:17:24;1.00;99.90
11087;DHT22;5597;47.588;9.642;2024-01-30T02:19:49;0.90;99.90
11087;DHT22;5597;47.588;9.642;2024-01-30T02:22:15;1.00;99.90
11087;DHT22;5597;47.588;9.642;2024-01-30T02:24:41;1.00;99.90
11087;DHT22;5597;47.588;9.642;2024-01-30T02:27:06;1.00;99.90
11087;DHT22;5597;47.588;9.642;2024-01-30T02:29:32;0.90;99.90
11087;DHT22;5597;47.588;9.642;2024-01-30T02:31:57;0.90;99.90
11087;DHT22;5597;47.588;9.642;2024-01-30T02:34:24;0.90;99.90
11087;DHT22;5597;47.588;9.642;2024-01-30T02:36:49;0.90;99.90
11087;DHT22;5597;47.588;9.642;2024-01-30T02:39:15;0.80;99.90
11087;DHT22;5597;47.588;9.642;2024-01-30T02:41:41;0.90;99.90
11087;DHT22;5597;47.588;9.642;2024-01-30T02:44:06;0.80;99.90
11087;DHT22;5597;47.588;9.642;2024-01-30T02:46:32;0.80;99.90
11087;DHT22;5597;47.588;9.642;2024-01-30T02:48:57;0.80;99.90
11087;DHT22;5597;47.588;9.642;2024-01-30T02:51:23;0.80;99.90
11087;DHT22;5597;47.588;9.642;2024-01-30T02:53:48;0.70;99.90
11087;DHT22;5597;47.588;9.642;2024-01-30T02:56:15;0.70;99.90
11087;DHT22;5597;47.588;9.642;2024-01-30T02:58:40;0.70;99.90
11087;DHT22;5597;47.588;9.642;2024-01-30T03:01:07;0.70;99.90
11087;DHT22;5597;47.588;9.642;2024-01-30T03:03:32;0.60;99.90
11087;DHT22;5597;47.588;9.642;2024-01-30T03:06:00;0.60;99.90
11087;DHT22;5597;47.588;9.642;2024-01-30T03:08:26;0.60;99.90
11087;DHT22;5597;47.588;9.642;2024-01-30T03:10:51;0.60;99.90
11087;DHT22;5597;47.588;9.642;2024-01-30T03:13:17;0.60;99.90
11087;DHT22;5597;47.588;9.642;2024-01-30T03:15:42;0.50;99.90
11087;DHT22;5597;47.588;9.642;2024-01-30T03:18:08;0.50;99.90
11087;DHT22;5597;47.588;9.642;2024-01-30T03:20:34;0.50;99.90
11087;DHT22;5597;47.588;9.642;2024-01-30T03:23:00;0.50;99.90
11087;DHT22;5597;47.588;9.642;2024-01-30T03:25:26;0.50;99.90
11087;DHT22;5597;47.588;9.642;2024-01-30T03:27:51;0.50;99.90
11087;DHT22;5597;47.588;9.642;2024-01-30T03:30:17;0.50;99.90
11087;DHT22;5597;47.588;9.642;2024-01-30T03:32:43;0.50;99.90
11087;DHT22;5597;47.588;9.642;2024-01-30T03:35:09;0.50;99.90
11087;DHT22;5597;47.588;9.642;2024-01-30T03:37:35;0.60;99.90
11087;DHT22;5597;47.588;9.642;2024-01-30T03:40:01;0.60;99.90
11087;DHT22;5597;47.588;9.642;2024-01-30T03:42:27;0.60;99.90
11087;DHT22;5597;47.588;9.642;2024-01-30T03:44:53;0.60;99.90
11087;DHT22;5597;47.588;9.642;2024-01-30T03:47:19;0.60;99.90
11087;DHT22;5597;47.588;9.642;2024-01-30T03:49:45;0.70;99.90
11087;DHT22;5597;47.588;9.642;2024-01-30T03:52:11;0.70;99.90
11087;DHT22;5597;47.588;9.642;2024-01-30T03:54:36;0.70;99.90
11087;DHT22;5597;47.588;9.642;2024-01-30T03:57:02;0.80;99.90
11087;DHT22;5597;47.588;9.642;2024-01-30T03:59:28;0.80;99.90
11087;DHT22;5597;47.588;9.642;2024-01-30T04:01:54;0.80;99.90
11087;DHT22;5597;47.588;9.642;2024-01-30T04:04:19;0.80;99.90
11087;DHT22;5597;47.588;9.642;2024-01-30T04:06:45;0.80;99.90
11087;DHT22;5597;47.588;9.642;2024-01-30T04:09:12;0.80;99.90
11087;DHT22;5597;47.588;9.642;2024-01-30T04:11:41;0.90;99.90
11087;DHT22;5597;47.588;9.642;2024-01-30T04:14:07;0.90;99.90
11087;DHT22;5597;47.588;9.642;2024-01-30T04:16:33;0.90;99.90
11087;DHT22;5597;47.588;9.642;2024-01-30T04:18:58;0.90;99.90
11087;DHT22;5597;47.588;9.642;2024-01-30T04:21:24;0.90;99.90
11087;DHT22;5597;47.588;9.642;2024-01-30T04:23:51;0.90;99.90
11087;DHT22;5597;47.588;9.642;2024-01-30T04:26:16;0.90;99.90
11087;DHT22;5597;47.588;9.642;2024-01-30T04:28:43;0.90;99.90
11087;DHT22;5597;47.588;9.642;2024-01-30T04:31:09;0.90;99.90
11087;DHT22;5597;47.588;9.642;2024-01-30T04:33:35;0.90;99.90
11087;DHT22;5597;47.588;9.642;2024-01-30T04:36:01;0.90;99.90
11087;DHT22;5597;47.588;9.642;2024-01-30T04:38:27;0.90;99.90
11087;DHT22;5597;47.588;9.642;2024-01-30T04:40:52;0.90;99.90
11087;DHT22;5597;47.588;9.642;2024-01-30T04:43:18;0.80;99.90
11087;DHT22;5597;47.588;9.642;2024-01-30T04:45:44;0.90;99.90
11087;DHT22;5597;47.588;9.642;2024-01-30T04:48:10;0.90;99.90
11087;DHT22;5597;47.588;9.642;2024-01-30T04:50:35;0.90;99.90
11087;DHT22;5597;47.588;9.642;2024-01-30T04:53:01;0.90;99.90
11087;DHT22;5597;47.588;9.642;2024-01-30T04:55:27;0.90;99.90
11087;DHT22;5597;47.588;9.642;2024-01-30T04:57:52;0.90;99.90
11087;DHT22;5597;47.588;9.642;2024-01-30T05:00:18;0.90;99.90
11087;DHT22;5597;47.588;9.642;2024-01-30T05:02:44;0.90;99.90
11087;DHT22;5597;47.588;9.642;2024-01-30T05:05:09;0.90;99.90
11087;DHT22;5597;47.588;9.642;2024-01-30T05:07:36;1.00;99.90
11087;DHT22;5597;47.588;9.642;2024-01-30T05:10:02;1.00;99.90
11087;DHT22;5597;47.588;9.642;2024-01-30T05:12:28;1.00;99.90
11087;DHT22;5597;47.588;9.642;2024-01-30T05:14:54;1.00;99.90
11087;DHT22;5597;47.588;9.642;2024-01-30T05:17:20;1.00;99.90
11087;DHT22;5597;47.588;9.642;2024-01-30T05:19:45;1.00;99.90
11087;DHT22;5597;47.588;9.642;2024-01-30T05:22:11;1.00;99.90
11087;DHT22;5597;47.588;9.642;2024-01-30T05:24:43;1.10;99.90
11087;DHT22;5597;47.588;9.642;2024-01-30T05:27:09;1.10;99.90
11087;DHT22;5597;47.588;9.642;2024-01-30T05:29:34;1.10;99.90
11087;DHT22;5597;47.588;9.642;2024-01-30T05:32:00;1.10;99.90
11087;DHT22;5597;47.588;9.642;2024-01-30T05:34:25;1.10;99.90
11087;DHT22;5597;47.588;9.642;2024-01-30T05:36:51;1.10;99.90
11087;DHT22;5597;47.588;9.642;2024-01-30T05:39:16;1.00;99.90
11087;DHT22;5597;47.588;9.642;2024-01-30T05:41:42;1.00;99.90
11087;DHT22;5597;47.588;9.642;2024-01-30T05:44:07;1.00;99.90
11087;DHT22;5597;47.588;9.642;2024-01-30T05:46:35;1.00;99.90
11087;DHT22;5597;47.588;9.642;2024-01-30T05:49:00;1.00;99.90
11087;DHT22;5597;47.588;9.642;2024-01-30T05:51:26;1.00;99.90
11087;DHT22;5597;47.588;9.642;2024-01-30T05:53:53;0.90;99.90
11087;DHT22;5597;47.588;9.642;2024-01-30T05:56:19;0.90;99.90
11087;DHT22;5597;47.588;9.642;2024-01-30T05:58:44;0.90;99.90
11087;DHT22;5597;47.588;9.642;2024-01-30T06:01:10;0.90;99.90
11087;DHT22;5597;47.588;9.642;2024-01-30T06:03:36;0.80;99.90
11087;DHT22;5597;47.588;9.642;2024-01-30T06:06:01;0.80;99.90
11087;DHT22;5597;47.588;9.642;2024-01-30T06:08:27;0.70;99.90
11087;DHT22;5597;47.588;9.642;2024-01-30T06:10:52;0.70;99.90
11087;DHT22;5597;47.588;9.642;2024-01-30T06:13:18;0.70;99.90
11087;DHT22;5597;47.588;9.642;2024-01-30T06:15:44;0.70;99.90
11087;DHT22;5597;47.588;9.642;2024-01-30T06:18:09;0.60;99.90
11087;DHT22;5597;47.588;9.642;2024-01-30T06:20:35;0.60;99.90
11087;DHT22;5597;47.588;9.642;2024-01-30T06:23:01;0.60;99.90
11087;DHT22;5597;47.588;9.642;2024-01-30T06:25:26;0.60;99.90
11087;DHT22;5597;47.588;9.642;2024-01-30T06:27:52;0.60;99.90
11087;DHT22;5597;47.588;9.642;2024-01-30T06:30:18;0.60;99.90
11087;DHT22;5597;47.588;9.642;2024-01-30T06:32:43;0.60;99.90
11087;DHT22;5597;47.588;9.642;2024-01-30T06:35:09;0.60;99.90
11087;DHT22;5597;47.588;9.642;2024-01-30T06:37:36;0.60;99.90
11087;DHT22;5597;47.588;9.642;2024-01-30T06:40:01;0.60;99.90
11087;DHT22;5597;47.588;9.642;2024-01-30T06:42:27;0.60;99.90
11087;DHT22;5597;47.588;9.642;2024-01-30T06:44:53;0.60;99.90
11087;DHT22;5597;47.588;9.642;2024-01-30T06:47:19;0.70;99.90
11087;DHT22;5597;47.588;9.642;2024-01-30T06:49:44;0.70;99.90
11087;DHT22;5597;47.588;9.642;2024-01-30T06:52:10;0.70;99.90
11087;DHT22;5597;47.588;9.642;2024-01-30T06:54:36;0.70;99.90
11087;DHT22;5597;47.588;9.642;2024-01-30T06:57:02;0.70;99.90
11087;DHT22;5597;47.588;9.642;2024-01-30T06:59:28;0.80;99.90
11087;DHT22;5597;47.588;9.642;2024-01-30T07:01:54;0.80;99.90
11087;DHT22;5597;47.588;9.642;2024-01-30T07:04:19;0.80;99.90
11087;DHT22;5597;47.588;9.642;2024-01-30T07:06:45;0.80;99.90
11087;DHT22;5597;47.588;9.642;2024-01-30T07:09:12;0.90;99.90
11087;DHT22;5597;47.588;9.642;2024-01-30T07:11:39;0.90;99.90
11087;DHT22;5597;47.588;9.642;2024-01-30T07:14:04;0.90;99.90
11087;DHT22;5597;47.588;9.642;2024-01-30T07:16:30;0.90;99.90
11087;DHT22;5597;47.588;9.642;2024-01-30T07:18:56;0.90;99.90
11087;DHT22;5597;47.588;9.642;2024-01-30T07:21:22;1.00;99.90
11087;DHT22;5597;47.588;9.642;2024-01-30T07:23:53;0.90;99.90
11087;DHT22;5597;47.588;9.642;2024-01-30T07:26:19;1.00;99.90
11087;DHT22;5597;47.588;9.642;2024-01-30T07:28:44;1.00;99.90
11087;DHT22;5597;47.588;9.642;2024-01-30T07:31:10;1.00;99.90
11087;DHT22;5597;47.588;9.642;2024-01-30T07:33:36;1.10;99.90
11087;DHT22;5597;47.588;9.642;2024-01-30T07:36:02;1.10;99.90
11087;DHT22;5597;47.588;9.642;2024-01-30T07:38:27;1.10;99.90
11087;DHT22;5597;47.588;9.642;2024-01-30T07:40:53;1.20;99.90
11087;DHT22;5597;47.588;9.642;2024-01-30T07:43:18;1.20;99.90
11087;DHT22;5597;47.588;9.642;2024-01-30T07:45:45;1.20;99.90
11087;DHT22;5597;47.588;9.642;2024-01-30T07:48:11;1.20;99.90
11087;DHT22;5597;47.588;9.642;2024-01-30T07:50:37;1.20;99.90
11087;DHT22;5597;47.588;9.642;2024-01-30T07:53:02;1.20;99.90
11087;DHT22;5597;47.588;9.642;2024-01-30T07:55:28;1.30;99.90
11087;DHT22;5597;47.588;9.642;2024-01-30T07:57:55;1.30;99.90
11087;DHT22;5597;47.588;9.642;2024-01-30T08:00:21;1.40;99.90
11087;DHT22;5597;47.588;9.642;2024-01-30T08:02:47;1.40;99.90
11087;DHT22;5597;47.588;9.642;2024-01-30T08:05:13;1.40;99.90
11087;DHT22;5597;47.588;9.642;2024-01-30T08:07:43;1.40;99.90
11087;DHT22;5597;47.588;9.642;2024-01-30T08:10:11;1.50;99.90
11087;DHT22;5597;47.588;9.642;2024-01-30T08:12:36;1.50;99.90
11087;DHT22;5597;47.588;9.642;2024-01-30T08:15:02;1.60;99.90
11087;DHT22;5597;47.588;9.642;2024-01-30T08:17:28;1.60;99.90
11087;DHT22;5597;47.588;9.642;2024-01-30T08:19:54;1.50;99.90
11087;DHT22;5597;47.588;9.642;2024-01-30T08:22:19;1.50;99.90
11087;DHT22;5597;47.588;9.642;2024-01-30T08:24:45;1.50;99.90
11087;DHT22;5597;47.588;9.642;2024-01-30T08:27:11;1.50;99.90
11087;DHT22;5597;47.588;9.642;2024-01-30T08:29:37;1.50;99.90
11087;DHT22;5597;47.588;9.642;2024-01-30T08:32:04;1.50;99.90
11087;DHT22;5597;47.588;9.642;2024-01-30T08:34:30;1.50;99.90
11087;DHT22;5597;47.588;9.642;2024-01-30T08:36:56;1.50;99.90
11087;DHT22;5597;47.588;9.642;2024-01-30T08:39:21;1.60;99.90
11087;DHT22;5597;47.588;9.642;2024-01-30T08:41:47;1.60;99.90
11087;DHT22;5597;47.588;9.642;2024-01-30T08:44:13;1.60;99.90
11087;DHT22;5597;47.588;9.642;2024-01-30T08:46:38;1.70;99.90
11087;DHT22;5597;47.588;9.642;2024-01-30T08:49:04;1.70;99.90
11087;DHT22;5597;47.588;9.642;2024-01-30T08:51:30;1.70;99.90
11087;DHT22;5597;47.588;9.642;2024-01-30T08:53:55;1.80;99.90
11087;DHT22;5597;47.588;9.642;2024-01-30T08:56:21;1.90;99.90
11087;DHT22;5597;47.588;9.642;2024-01-30T08:58:47;2.00;99.90
11087;DHT22;5597;47.588;9.642;2024-01-30T09:01:12;2.10;99.90
11087;DHT22;5597;47.588;9.642;2024-01-30T09:03:38;2.10;99.90
11087;DHT22;5597;47.588;9.642;2024-01-30T09:06:09;2.20;99.90
11087;DHT22;5597;47.588;9.642;2024-01-30T09:08:35;2.30;99.90
11087;DHT22;5597;47.588;9.642;2024-01-30T09:11:01;2.40;99.90
11087;DHT22;5597;47.588;9.642;2024-01-30T09:13:26;2.40;99.90
11087;DHT22;5597;47.588;9.642;2024-01-30T09:15:52;2.40;99.90
11087;DHT22;5597;47.588;9.642;2024-01-30T09:18:18;2.40;99.90
11087;DHT22;5597;47.588;9.642;2024-01-30T09:20:44;2.50;99.90
11087;DHT22;5597;47.588;9.642;2024-01-30T09:23:12;2.50;99.90
11087;DHT22;5597;47.588;9.642;2024-01-30T09:25:38;2.50;99.90
11087;DHT22;5597;47.588;9.642;2024-01-30T09:28:04;2.50;99.90
11087;DHT22;5597;47.588;9.642;2024-01-30T09:30:30;2.60;99.90
11087;DHT22;5597;47.588;9.642;2024-01-30T09:32:56;2.70;99.90
11087;DHT22;5597;47.588;9.642;2024-01-30T09:35:21;2.70;99.90
11087;DHT22;5597;47.588;9.642;2024-01-30T09:37:47;2.70;99.90
11087;DHT22;5597;47.588;9.642;2024-01-30T09:40:13;2.70;99.90
11087;DHT22;5597;47.588;9.642;2024-01-30T09:42:40;2.70;99.90
11087;DHT22;5597;47.588;9.642;2024-01-30T09:45:10;2.70;99.90
11087;DHT22;5597;47.588;9.642;2024-01-30T09:47:41;2.70;99.90
11087;DHT22;5597;47.588;9.642;2024-01-30T09:50:09;2.70;99.90
11087;DHT22;5597;47.588;9.642;2024-01-30T09:52:35;2.80;99.90
11087;DHT22;5597;47.588;9.642;2024-01-30T09:55:01;2.80;99.90
11087;DHT22;5597;47.588;9.642;2024-01-30T09:57:27;2.90;99.90
11087;DHT22;5597;47.588;9.642;2024-01-30T09:59:55;3.00;99.90
11087;DHT22;5597;47.588;9.642;2024-01-30T10:02:21;3.00;99.90
11087;DHT22;5597;47.588;9.642;2024-01-30T10:04:49;3.20;99.90
11087;DHT22;5597;47.588;9.642;2024-01-30T10:07:15;3.20;99.90
11087;DHT22;5597;47.588;9.642;2024-01-30T10:09:41;3.40;99.90
11087;DHT22;5597;47.588;9.642;2024-01-30T10:12:07;3.50;99.90
11087;DHT22;5597;47.588;9.642;2024-01-30T10:14:37;3.50;99.90
11087;DHT22;5597;47.588;9.642;2024-01-30T10:17:03;3.60;99.90
11087;DHT22;5597;47.588;9.642;2024-01-30T10:19:30;3.70;99.90
11087;DHT22;5597;47.588;9.642;2024-01-30T10:21:55;3.70;99.90
11087;DHT22;5597;47.588;9.642;2024-01-30T10:24:25;3.70;99.90
11087;DHT22;5597;47.588;9.642;2024-01-30T10:26:50;3.60;99.90
11087;DHT22;5597;47.588;9.642;2024-01-30T10:29:17;3.70;99.90
11087;DHT22;5597;47.588;9.642;2024-01-30T10:31:42;3.90;99.90
11087;DHT22;5597;47.588;9.642;2024-01-30T10:34:08;4.10;99.90
11087;DHT22;5597;47.588;9.642;2024-01-30T10:36:40;4.20;99.90
11087;DHT22;5597;47.588;9.642;2024-01-30T10:39:09;4.30;99.90
11087;DHT22;5597;47.588;9.642;2024-01-30T10:41:43;4.50;99.90
11087;DHT22;5597;47.588;9.642;2024-01-30T10:44:10;4.60;99.90
11087;DHT22;5597;47.588;9.642;2024-01-30T10:46:38;4.90;99.90
11087;DHT22;5597;47.588;9.642;2024-01-30T10:49:05;5.00;99.90
11087;DHT22;5597;47.588;9.642;2024-01-30T10:51:32;5.20;99.90
11087;DHT22;5597;47.588;9.642;2024-01-30T10:53:58;5.30;99.90
11087;DHT22;5597;47.588;9.642;2024-01-30T10:56:24;5.40;99.90
11087;DHT22;5597;47.588;9.642;2024-01-30T10:58:51;5.50;99.90
11087;DHT22;5597;47.588;9.642;2024-01-30T11:01:21;5.50;99.90
11087;DHT22;5597;47.588;9.642;2024-01-30T11:03:54;5.40;99.90
11087;DHT22;5597;47.588;9.642;2024-01-30T11:06:23;5.40;99.90
11087;DHT22;5597;47.588;9.642;2024-01-30T11:09:03;5.40;99.90
11087;DHT22;5597;47.588;9.642;2024-01-30T11:11:52;5.40;99.90
11087;DHT22;5597;47.588;9.642;2024-01-30T11:14:23;5.50;99.90
11087;DHT22;5597;47.588;9.642;2024-01-30T11:16:50;5.50;99.90
11087;DHT22;5597;47.588;9.642;2024-01-30T11:19:22;5.60;99.90
11087;DHT22;5597;47.588;9.642;2024-01-30T11:21:50;5.50;99.90
11087;DHT22;5597;47.588;9.642;2024-01-30T11:24:25;5.50;99.90
11087;DHT22;5597;47.588;9.642;2024-01-30T11:26:58;5.50;99.90
11087;DHT22;5597;47.588;9.642;2024-01-30T11:29:25;5.40;99.90
11087;DHT22;5597;47.588;9.642;2024-01-30T11:31:58;5.30;99.90
11087;DHT22;5597;47.588;9.642;2024-01-30T11:34:24;5.30;99.90
11087;DHT22;5597;47.588;9.642;2024-01-30T11:36:56;5.30;99.90
11087;DHT22;5597;47.588;9.642;2024-01-30T11:39:27;5.40;99.90
11087;DHT22;5597;47.588;9.642;2024-01-30T11:41:53;5.40;99.90
11087;DHT22;5597;47.588;9.642;2024-01-30T11:44:21;5.50;99.90
11087;DHT22;5597;47.588;9.642;2024-01-30T11:46:48;5.50;99.90
11087;DHT22;5597;47.588;9.642;2024-01-30T11:49:13;5.50;99.90
11087;DHT22;5597;47.588;9.642;2024-01-30T11:51:41;5.50;99.90
11087;DHT22;5597;47.588;9.642;2024-01-30T11:54:07;5.40;99.90
11087;DHT22;5597;47.588;9.642;2024-01-30T11:56:33;5.50;99.90
11087;DHT22;5597;47.588;9.642;2024-01-30T11:58:59;5.60;99.90
11087;DHT22;5597;47.588;9.642;2024-01-30T12:01:26;5.70;99.90
11087;DHT22;5597;47.588;9.642;2024-01-30T12:03:52;5.80;99.90
11087;DHT22;5597;47.588;9.642;2024-01-30T12:06:18;5.90;99.90
11087;DHT22;5597;47.588;9.642;2024-01-30T12:08:54;6.00;99.90
11087;DHT22;5597;47.588;9.642;2024-01-30T12:11:20;6.10;99.90
11087;DHT22;5597;47.588;9.642;2024-01-30T12:13:45;6.20;99.90
11087;DHT22;5597;47.588;9.642;2024-01-30T12:16:11;6.20;99.90
11087;DHT22;5597;47.588;9.642;2024-01-30T12:18:38;6.30;99.90
11087;DHT22;5597;47.588;9.642;2024-01-30T12:21:05;6.30;99.90
11087;DHT22;5597;47.588;9.642;2024-01-30T12:23:30;6.30;99.90
11087;DHT22;5597;47.588;9.642;2024-01-30T12:25:56;6.40;99.90
11087;DHT22;5597;47.588;9.642;2024-01-30T12:28:22;6.50;99.90
11087;DHT22;5597;47.588;9.642;2024-01-30T12:30:48;6.60;99.90
11087;DHT22;5597;47.588;9.642;2024-01-30T12:33:17;6.70;99.90
11087;DHT22;5597;47.588;9.642;2024-01-30T12:35:46;6.70;99.90
11087;DHT22;5597;47.588;9.642;2024-01-30T12:38:14;6.70;99.90
11087;DHT22;5597;47.588;9.642;2024-01-30T12:40:39;6.70;99.90
11087;DHT22;5597;47.588;9.642;2024-01-30T12:43:05;6.80;99.90
11087;DHT22;5597;47.588;9.642;2024-01-30T12:45:31;6.90;99.90
11087;DHT22;5597;47.588;9.642;2024-01-30T12:47:56;7.10;99.90
11087;DHT22;5597;47.588;9.642;2024-01-30T12:50:23;7.20;99.90
11087;DHT22;5597;47.588;9.642;2024-01-30T12:52:49;7.30;99.90
11087;DHT22;5597;47.588;9.642;2024-01-30T12:55:15;7.40;99.90
11087;DHT22;5597;47.588;9.642;2024-01-30T12:57:41;7.50;99.90
11087;DHT22;5597;47.588;9.642;2024-01-30T13:00:07;7.60;99.90
11087;DHT22;5597;47.588;9.642;2024-01-30T13:02:36;7.70;99.90
11087;DHT22;5597;47.588;9.642;2024-01-30T13:05:03;7.70;99.90
11087;DHT22;5597;47.588;9.642;2024-01-30T13:07:30;7.70;99.90
11087;DHT22;5597;47.588;9.642;2024-01-30T13:09:56;7.80;99.90
11087;DHT22;5597;47.588;9.642;2024-01-30T13:12:27;7.90;99.90
11087;DHT22;5597;47.588;9.642;2024-01-30T13:14:53;8.00;99.90
11087;DHT22;5597;47.588;9.642;2024-01-30T13:17:19;8.10;99.90
11087;DHT22;5597;47.588;9.642;2024-01-30T13:19:45;8.20;99.90
11087;DHT22;5597;47.588;9.642;2024-01-30T13:22:10;8.20;99.90
11087;DHT22;5597;47.588;9.642;2024-01-30T13:24:36;8.10;99.90
11087;DHT22;5597;47.588;9.642;2024-01-30T13:27:02;8.00;99.90
11087;DHT22;5597;47.588;9.642;2024-01-30T13:29:27;7.90;99.90
11087;DHT22;5597;47.588;9.642;2024-01-30T13:31:53;7.80;99.90
11087;DHT22;5597;47.588;9.642;2024-01-30T13:34:19;7.60;99.90
11087;DHT22;5597;47.588;9.642;2024-01-30T13:36:44;7.50;99.90
11087;DHT22;5597;47.588;9.642;2024-01-30T13:39:10;7.40;99.90
11087;DHT22;5597;47.588;9.642;2024-01-30T13:41:38;7.20;99.90
11087;DHT22;5597;47.588;9.642;2024-01-30T13:44:03;7.00;99.90
11087;DHT22;5597;47.588;9.642;2024-01-30T13:46:30;6.90;99.90
11087;DHT22;5597;47.588;9.642;2024-01-30T13:48:55;6.70;99.90
11087;DHT22;5597;47.588;9.642;2024-01-30T13:51:21;6.60;99.90
11087;DHT22;5597;47.588;9.642;2024-01-30T13:53:47;6.50;99.90
11087;DHT22;5597;47.588;9.642;2024-01-30T13:56:12;6.40;99.90
11087;DHT22;5597;47.588;9.642;2024-01-30T13:58:38;6.30;99.90
11087;DHT22;5597;47.588;9.642;2024-01-30T14:01:03;6.20;99.90
11087;DHT22;5597;47.588;9.642;2024-01-30T14:03:30;6.10;99.90
11087;DHT22;5597;47.588;9.642;2024-01-30T14:05:55;6.10;99.90
11087;DHT22;5597;47.588;9.642;2024-01-30T14:08:21;6.10;99.90
11087;DHT22;5597;47.588;9.642;2024-01-30T14:10:49;6.20;99.90
11087;DHT22;5597;47.588;9.642;2024-01-30T14:13:14;6.20;99.90
11087;DHT22;5597;47.588;9.642;2024-01-30T14:15:40;6.20;99.90
11087;DHT22;5597;47.588;9.642;2024-01-30T14:18:06;6.30;99.90
11087;DHT22;5597;47.588;9.642;2024-01-30T14:20:33;6.40;99.90
11087;DHT22;5597;47.588;9.642;2024-01-30T14:22:59;6.40;99.90
11087;DHT22;5597;47.588;9.642;2024-01-30T14:25:24;6.40;99.90
11087;DHT22;5597;47.588;9.642;2024-01-30T14:27:51;6.40;99.90
11087;DHT22;5597;47.588;9.642;2024-01-30T14:30:17;6.50;99.90
11087;DHT22;5597;47.588;9.642;2024-01-30T14:32:43;6.60;99.90
11087;DHT22;5597;47.588;9.642;2024-01-30T14:35:10;6.50;99.90
11087;DHT22;5597;47.588;9.642;2024-01-30T14:37:37;6.50;99.90
11087;DHT22;5597;47.588;9.642;2024-01-30T14:40:03;6.50;99.90
11087;DHT22;5597;47.588;9.642;2024-01-30T14:42:32;6.60;99.90
11087;DHT22;5597;47.588;9.642;2024-01-30T14:44:57;6.60;99.90
11087;DHT22;5597;47.588;9.642;2024-01-30T14:47:24;6.60;99.90
11087;DHT22;5597;47.588;9.642;2024-01-30T14:49:49;6.50;99.90
11087;DHT22;5597;47.588;9.642;2024-01-30T14:52:15;6.40;99.90
11087;DHT22;5597;47.588;9.642;2024-01-30T14:54:40;6.30;99.90
11087;DHT22;5597;47.588;9.642;2024-01-30T14:57:06;6.20;99.90
11087;DHT22;5597;47.588;9.642;2024-01-30T14:59:32;6.20;99.90
11087;DHT22;5597;47.588;9.642;2024-01-30T15:01:59;6.10;99.90
11087;DHT22;5597;47.588;9.642;2024-01-30T15:04:25;6.00;99.90
11087;DHT22;5597;47.588;9.642;2024-01-30T15:06:50;5.90;99.90
11087;DHT22;5597;47.588;9.642;2024-01-30T15:09:16;5.90;99.90
11087;DHT22;5597;47.588;9.642;2024-01-30T15:11:43;5.80;99.90
11087;DHT22;5597;47.588;9.642;2024-01-30T15:14:19;5.80;99.90
11087;DHT22;5597;47.588;9.642;2024-01-30T15:16:45;5.70;99.90
11087;DHT22;5597;47.588;9.642;2024-01-30T15:19:10;5.70;99.90
11087;DHT22;5597;47.588;9.642;2024-01-30T15:21:36;5.70;99.90
11087;DHT22;5597;47.588;9.642;2024-01-30T15:24:02;5.70;99.90
11087;DHT22;5597;47.588;9.642;2024-01-30T15:26:28;5.60;99.90
11087;DHT22;5597;47.588;9.642;2024-01-30T15:28:54;5.60;99.90
11087;DHT22;5597;47.588;9.642;2024-01-30T15:31:19;5.50;99.90
11087;DHT22;5597;47.588;9.642;2024-01-30T15:33:45;5.50;99.90
11087;DHT22;5597;47.588;9.642;2024-01-30T15:36:11;5.40;99.90
11087;DHT22;5597;47.588;9.642;2024-01-30T15:38:38;5.30;99.90
11087;DHT22;5597;47.588;9.642;2024-01-30T15:41:04;5.20;99.90
11087;DHT22;5597;47.588;9.642;2024-01-30T15:43:30;5.20;99.90
11087;DHT22;5597;47.588;9.642;2024-01-30T15:45:58;5.10;99.90
11087;DHT22;5597;47.588;9.642;2024-01-30T15:48:23;5.10;99.90
11087;DHT22;5597;47.588;9.642;2024-01-30T15:50:49;5.00;99.90
11087;DHT22;5597;47.588;9.642;2024-01-30T15:53:15;5.00;99.90
11087;DHT22;5597;47.588;9.642;2024-01-30T15:55:40;4.90;99.90